createdAt,value
2022-11-09T00:00:46.862Z,99328.75
2022-11-09T00:03:14.407Z,99341.88
2022-11-09T00:05:42.313Z,99333.69
2022-11-09T00:08:11.683Z,99309.34
2022-11-09T00:10:39.697Z,99304.81
2022-11-09T00:13:07.338Z,99296.81
2022-11-09T00:15:36.588Z,99283.75
2022-11-09T00:18:04.343Z,99274.50
2022-11-09T00:20:31.956Z,99270.22
2022-11-09T00:22:59.569Z,99248.31
2022-11-09T00:25:27.139Z,99244.63
2022-11-09T00:27:54.999Z,99256.31
2022-11-09T00:30:23.401Z,99274.94
2022-11-09T00:32:52.316Z,99280.47
2022-11-09T00:35:19.881Z,99294.16
2022-11-09T00:37:47.682Z,99307.91
2022-11-09T00:40:15.593Z,99305.06
2022-11-09T00:42:43.198Z,99309.09
2022-11-09T00:45:11.247Z,99316.69
2022-11-09T00:47:38.840Z,99314.03
2022-11-09T00:50:09.063Z,99321.00
2022-11-09T00:52:36.621Z,99313.19
2022-11-09T00:55:04.762Z,99316.66
2022-11-09T00:57:32.316Z,99314.16
2022-11-09T00:59:59.892Z,99323.53
2022-11-09T01:02:27.586Z,99324.78
2022-11-09T01:04:55.165Z,99317.66
2022-11-09T01:07:24.064Z,99313.13
2022-11-09T01:09:51.620Z,99311.50
2022-11-09T01:12:19.178Z,99314.38
2022-11-09T01:14:46.971Z,99322.38
2022-11-09T01:17:14.524Z,99323.81
2022-11-09T01:19:42.093Z,99318.31
2022-11-09T01:22:10.653Z,99318.09
2022-11-09T01:24:40.764Z,99326.31
2022-11-09T01:27:08.315Z,99320.78
2022-11-09T01:29:35.902Z,99313.19
2022-11-09T01:32:03.721Z,99321.31
2022-11-09T01:34:31.885Z,99325.41
2022-11-09T01:36:59.568Z,99335.19
2022-11-09T01:39:27.313Z,99329.03
2022-11-09T01:41:56.456Z,99326.75
2022-11-09T01:44:24.041Z,99314.09
2022-11-09T01:46:55.297Z,99319.84
2022-11-09T01:49:40.998Z,99328.28
2022-11-09T01:52:12.877Z,99327.47
2022-11-09T01:54:44.392Z,99331.16
2022-11-09T01:57:19.164Z,99325.03
2022-11-09T01:59:52.328Z,99316.63
2022-11-09T02:02:20.168Z,99319.28
2022-11-09T02:04:53.080Z,99307.84
2022-11-09T02:07:22.440Z,99310.06
2022-11-09T02:09:55.683Z,99298.50
2022-11-09T02:12:26.926Z,99297.63
2022-11-09T02:14:55.605Z,99295.53
2022-11-09T02:17:23.345Z,99302.25
2022-11-09T02:19:50.907Z,99288.56
2022-11-09T02:22:19.919Z,99290.16
2022-11-09T02:24:47.676Z,99291.06
2022-11-09T02:27:16.316Z,99286.53
2022-11-09T02:29:46.492Z,99289.84
2022-11-09T02:32:19.108Z,99289.38
2022-11-09T02:34:47.020Z,99280.78
2022-11-09T02:37:24.748Z,99269.63
2022-11-09T02:39:54.590Z,99266.84
2022-11-09T02:42:22.400Z,99264.63
2022-11-09T02:44:54.153Z,99266.72
2022-11-09T02:47:21.748Z,99255.66
2022-11-09T02:49:50.165Z,99244.66
2022-11-09T02:52:18.101Z,99249.09
2022-11-09T02:54:45.728Z,99249.41
2022-11-09T02:57:14.680Z,99247.56
2022-11-09T02:59:42.236Z,99239.31
2022-11-09T03:02:10.140Z,99227.59
2022-11-09T03:04:38.233Z,99231.09
2022-11-09T03:07:06.096Z,99241.88
2022-11-09T03:09:33.697Z,99260.84
2022-11-09T03:12:21.364Z,99257.59
2022-11-09T03:14:50.346Z,99256.59
2022-11-09T03:17:18.424Z,99261.34
2022-11-09T03:19:46.118Z,99269.94
2022-11-09T03:22:13.758Z,99273.00
2022-11-09T03:24:41.313Z,99272.41
2022-11-09T03:27:09.126Z,99271.56
2022-11-09T03:29:36.780Z,99274.16
2022-11-09T03:32:06.542Z,99282.25
2022-11-09T03:34:34.236Z,99276.84
2022-11-09T03:37:02.019Z,99287.53
2022-11-09T03:39:29.577Z,99280.00
2022-11-09T03:41:57.501Z,99282.84
2022-11-09T03:44:25.047Z,99289.97
2022-11-09T03:46:52.811Z,99297.09
2022-11-09T03:49:23.876Z,99293.63
2022-11-09T03:51:52.051Z,99297.50
2022-11-09T03:54:19.853Z,99290.97
2022-11-09T03:56:47.405Z,99288.00
2022-11-09T03:59:14.981Z,99286.75
2022-11-09T04:01:42.547Z,99283.31
2022-11-09T04:04:11.254Z,99290.94
2022-11-09T04:06:40.200Z,99291.75
2022-11-09T04:09:07.862Z,99296.03
2022-11-09T04:11:35.466Z,99287.81
2022-11-09T04:14:03.076Z,99286.81
2022-11-09T04:16:30.679Z,99277.53
2022-11-09T04:18:58.249Z,99268.03
2022-11-09T04:21:25.818Z,99260.06
2022-11-09T04:23:54.757Z,99276.84
2022-11-09T04:26:22.367Z,99284.00
2022-11-09T04:28:50.045Z,99287.34
2022-11-09T04:31:17.769Z,99283.72
2022-11-09T04:33:45.388Z,99299.94
2022-11-09T04:36:12.973Z,99297.88
2022-11-09T04:38:40.730Z,99299.16
2022-11-09T04:41:09.671Z,99301.06
2022-11-09T04:43:37.277Z,99306.81
2022-11-09T04:46:05.776Z,99301.53
2022-11-09T04:48:33.706Z,99301.09
2022-11-09T04:51:02.288Z,99305.03
2022-11-09T04:53:30.234Z,99312.28
2022-11-09T04:55:58.268Z,99306.13
2022-11-09T04:58:27.470Z,99313.66
2022-11-09T05:01:03.600Z,99313.66
2022-11-09T05:03:31.286Z,99318.72
2022-11-09T05:05:59.137Z,99322.06
2022-11-09T05:08:26.958Z,99324.84
2022-11-09T05:10:58.506Z,99318.66
2022-11-09T05:13:27.586Z,99309.25
2022-11-09T05:15:55.156Z,99314.34
2022-11-09T05:18:22.969Z,99310.84
2022-11-09T05:20:50.628Z,99300.59
2022-11-09T05:23:35.826Z,99309.88
2022-11-09T05:26:03.423Z,99308.28
2022-11-09T05:28:32.322Z,99319.47
2022-11-09T05:30:59.905Z,99313.34
2022-11-09T05:33:27.941Z,99312.25
2022-11-09T05:35:55.631Z,99304.22
2022-11-09T05:38:23.513Z,99304.78
2022-11-09T05:40:51.540Z,99301.41
2022-11-09T05:43:19.979Z,99293.06
2022-11-09T05:45:49.308Z,99290.69
2022-11-09T05:48:18.812Z,99297.22
2022-11-09T05:50:46.518Z,99306.72
2022-11-09T05:53:14.317Z,99317.34
2022-11-09T05:55:41.919Z,99314.09
2022-11-09T05:58:09.998Z,99309.31
2022-11-09T06:00:38.032Z,99311.47
2022-11-09T06:03:08.853Z,99312.53
2022-11-09T06:05:37.220Z,99308.59
2022-11-09T06:08:05.343Z,99318.63
2022-11-09T06:10:33.620Z,99313.50
2022-11-09T06:13:01.500Z,99316.69
2022-11-09T06:15:29.281Z,99316.75
2022-11-09T06:17:58.560Z,99325.44
2022-11-09T06:20:28.729Z,99336.06
2022-11-09T06:23:02.500Z,99322.06
2022-11-09T06:25:32.806Z,99308.19
2022-11-09T06:28:00.643Z,99296.09
2022-11-09T06:30:28.836Z,99303.38
2022-11-09T06:33:00.917Z,99293.56
2022-11-09T06:35:30.345Z,99288.69
2022-11-09T06:37:58.475Z,99273.75
2022-11-09T06:40:26.061Z,99273.38
2022-11-09T06:42:54.025Z,99274.56
2022-11-09T06:45:21.631Z,99269.66
2022-11-09T06:47:49.386Z,99276.44
2022-11-09T06:50:17.004Z,99278.94
2022-11-09T06:52:46.128Z,99284.81
2022-11-09T06:55:13.775Z,99304.78
2022-11-09T06:57:41.710Z,99295.28
2022-11-09T07:00:11.417Z,99306.25
2022-11-09T07:02:39.061Z,99316.59
2022-11-09T07:05:07.141Z,99317.72
2022-11-09T07:07:34.699Z,99318.13
2022-11-09T07:10:03.969Z,99330.34
2022-11-09T07:12:32.624Z,99332.38
2022-11-09T07:15:00.244Z,99323.84
2022-11-09T07:17:30.325Z,99327.16
2022-11-09T07:19:57.913Z,99321.94
2022-11-09T07:22:25.547Z,99319.31
2022-11-09T07:24:53.106Z,99323.97
2022-11-09T07:27:27.349Z,99327.44
2022-11-09T07:29:55.632Z,99338.66
2022-11-09T07:32:40.622Z,99339.72
2022-11-09T07:35:11.033Z,99347.66
2022-11-09T07:37:38.788Z,99351.59
2022-11-09T07:40:07.614Z,99360.66
2022-11-09T07:42:36.555Z,99368.41
2022-11-09T07:45:04.538Z,99375.94
2022-11-09T07:47:32.373Z,99382.66
2022-11-09T07:50:00.137Z,99387.91
2022-11-09T07:52:27.785Z,99399.38
2022-11-09T07:54:55.343Z,99389.13
2022-11-09T07:57:23.263Z,99387.72
2022-11-09T07:59:53.507Z,99384.84
2022-11-09T08:02:21.251Z,99394.03
2022-11-09T08:04:50.065Z,99394.28
2022-11-09T08:07:17.694Z,99391.53
2022-11-09T08:09:45.264Z,99406.53
2022-11-09T08:12:12.854Z,99408.38
2022-11-09T08:14:40.439Z,99418.34
2022-11-09T08:17:10.557Z,99419.91
2022-11-09T08:19:39.149Z,99423.56
2022-11-09T08:22:07.768Z,99426.41
2022-11-09T08:24:35.299Z,99422.91
2022-11-09T08:27:02.839Z,99430.69
2022-11-09T08:29:30.424Z,99425.00
2022-11-09T08:31:58.057Z,99423.59
2022-11-09T08:34:27.969Z,99423.59
2022-11-09T08:36:55.535Z,99431.34
2022-11-09T08:39:23.613Z,99431.06
2022-11-09T08:41:51.268Z,99431.50
2022-11-09T08:44:19.063Z,99434.97
2022-11-09T08:46:46.665Z,99437.25
2022-11-09T08:49:14.850Z,99430.59
2022-11-09T08:51:43.781Z,99425.53
2022-11-09T08:54:13.425Z,99426.66
2022-11-09T08:56:41.098Z,99433.75
2022-11-09T08:59:08.749Z,99430.53
2022-11-09T09:01:36.544Z,99434.38
2022-11-09T09:04:04.113Z,99437.50
2022-11-09T09:06:31.760Z,99436.88
2022-11-09T09:09:00.891Z,99442.44
2022-11-09T09:11:28.639Z,99438.00
2022-11-09T09:13:56.226Z,99446.72
2022-11-09T09:16:23.848Z,99441.41
2022-11-09T09:18:51.404Z,99439.44
2022-11-09T09:21:20.300Z,99441.91
2022-11-09T09:23:50.142Z,99437.88
2022-11-09T09:26:19.083Z,99439.50
2022-11-09T09:28:46.719Z,99432.13
2022-11-09T09:31:18.194Z,99426.19
2022-11-09T09:33:47.395Z,99438.69
2022-11-09T09:36:18.529Z,99441.56
2022-11-09T09:38:46.153Z,99438.09
2022-11-09T09:41:23.474Z,99440.34
2022-11-09T09:43:55.811Z,99444.63
2022-11-09T09:46:28.188Z,99445.69
2022-11-09T09:49:02.364Z,99451.00
2022-11-09T09:51:38.716Z,99455.50
2022-11-09T09:54:12.806Z,99454.22
2022-11-09T09:56:45.320Z,99459.31
2022-11-09T09:59:19.516Z,99454.63
2022-11-09T10:01:48.433Z,99455.66
2022-11-09T10:04:19.279Z,99466.53
2022-11-09T10:07:00.708Z,99453.22
2022-11-09T10:09:40.842Z,99453.19
2022-11-09T10:12:19.416Z,99451.63
2022-11-09T10:15:07.258Z,99446.44
2022-11-09T10:17:43.798Z,99461.22
2022-11-09T10:20:28.421Z,99449.22
2022-11-09T10:23:07.714Z,99458.31
2022-11-09T10:28:47.668Z,99455.69
2022-11-09T10:31:21.290Z,99457.56
2022-11-09T10:33:54.862Z,99452.66
2022-11-09T10:36:29.725Z,99448.50
2022-11-09T10:39:01.104Z,99454.22
2022-11-09T10:41:33.935Z,99450.06
2022-11-09T10:44:03.609Z,99447.97
2022-11-09T10:46:31.194Z,99451.22
2022-11-09T10:48:58.809Z,99456.53
2022-11-09T10:51:35.160Z,99449.22
2022-11-09T10:54:22.188Z,99447.63
2022-11-09T10:57:05.642Z,99453.97
2022-11-09T10:59:50.705Z,99457.03
2022-11-09T11:02:47.813Z,99446.47
2022-11-09T11:05:28.123Z,99464.78
2022-11-09T11:07:55.784Z,99458.41
2022-11-09T11:10:24.227Z,99461.66
2022-11-09T11:13:21.041Z,99462.97
2022-11-09T11:15:50.653Z,99453.38
2022-11-09T11:18:22.050Z,99449.66
2022-11-09T11:20:50.025Z,99446.94
2022-11-09T11:23:19.966Z,99448.38
2022-11-09T11:26:07.624Z,99443.50
2022-11-09T11:28:42.324Z,99450.28
2022-11-09T11:31:16.201Z,99441.22
2022-11-09T11:33:44.083Z,99433.22
2022-11-09T11:36:20.300Z,99439.88
2022-11-09T11:38:58.374Z,99438.41
2022-11-09T11:41:42.355Z,99451.28
2022-11-09T11:44:25.866Z,99443.03
2022-11-09T11:47:03.090Z,99452.06
2022-11-09T11:49:44.512Z,99451.66
2022-11-09T11:52:18.659Z,99449.91
2022-11-09T11:55:08.734Z,99450.78
2022-11-09T11:57:46.570Z,99453.22
2022-11-09T12:00:16.537Z,99447.50
2022-11-09T12:03:17.515Z,99442.94
2022-11-09T12:06:07.701Z,99440.94
2022-11-09T12:08:49.791Z,99438.59
2022-11-09T12:11:29.001Z,99438.88
2022-11-09T12:14:09.683Z,99432.94
2022-11-09T12:16:47.029Z,99422.81
2022-11-09T12:19:35.292Z,99427.63
2022-11-09T12:22:10.309Z,99434.38
2022-11-09T12:24:42.148Z,99434.00
2022-11-09T12:27:43.837Z,99427.78
2022-11-09T12:30:16.849Z,99430.19
2022-11-09T12:32:51.909Z,99420.06
2022-11-09T12:35:26.154Z,99427.78
2022-11-09T12:37:59.997Z,99417.38
2022-11-09T12:40:31.361Z,99417.38
2022-11-09T12:43:04.832Z,99421.88
2022-11-09T12:45:36.005Z,99420.41
2022-11-09T12:48:12.671Z,99419.94
2022-11-09T12:50:40.749Z,99427.25
2022-11-09T12:53:10.450Z,99431.94
2022-11-09T12:55:44.797Z,99425.50
2022-11-09T12:58:23.396Z,99426.75
2022-11-09T13:00:54.154Z,99426.16
2022-11-09T13:03:28.453Z,99428.34
2022-11-09T13:06:19.525Z,99424.06
2022-11-09T13:09:00.927Z,99431.88
2022-11-09T13:11:37.217Z,99431.72
2022-11-09T13:14:39.451Z,99424.59
2022-11-09T13:17:44.238Z,99436.22
2022-11-09T13:20:56.998Z,99430.44
2022-11-09T13:23:59.195Z,99426.97
2022-11-09T13:26:59.868Z,99433.22
2022-11-09T13:29:28.699Z,99436.63
2022-11-09T13:32:02.306Z,99433.59
2022-11-09T13:34:41.637Z,99436.84
2022-11-09T13:37:38.121Z,99437.53
2022-11-09T13:40:39.239Z,99433.78
2022-11-09T13:43:17.366Z,99431.84
2022-11-09T13:45:46.941Z,99434.06
2022-11-09T13:48:40.495Z,99420.06
2022-11-09T13:51:12.186Z,99431.47
2022-11-09T13:53:53.778Z,99434.41
2022-11-09T13:56:29.332Z,99425.09
2022-11-09T13:59:03.191Z,99427.75
2022-11-09T14:01:37.030Z,99425.72
2022-11-09T14:04:06.054Z,99419.09
2022-11-09T14:06:34.405Z,99435.19
2022-11-09T14:09:03.782Z,99438.84
2022-11-09T14:11:50.545Z,99442.75
2022-11-09T14:14:48.714Z,99440.13
2022-11-09T14:17:21.685Z,99443.09
2022-11-09T14:19:59.198Z,99438.19
2022-11-09T14:22:30.841Z,99432.84
2022-11-09T14:24:58.667Z,99431.63
2022-11-09T14:27:26.260Z,99426.31
2022-11-09T14:29:57.712Z,99432.84
2022-11-09T14:32:32.374Z,99426.91
2022-11-09T14:35:19.307Z,99428.94
2022-11-09T14:37:46.985Z,99438.81
2022-11-09T14:40:20.002Z,99440.03
2022-11-09T14:42:50.041Z,99445.81
2022-11-09T14:45:19.492Z,99456.50
2022-11-09T14:47:50.559Z,99460.41
2022-11-09T14:50:20.987Z,99460.41
2022-11-09T14:52:49.677Z,99477.84
2022-11-09T14:55:19.924Z,99470.84
2022-11-09T14:57:48.545Z,99469.22
2022-11-09T15:00:27.190Z,99475.19
2022-11-09T15:02:54.869Z,99478.69
2022-11-09T15:05:33.006Z,99477.25
2022-11-09T15:08:02.295Z,99484.22
2022-11-09T15:10:32.511Z,99483.19
2022-11-09T15:13:04.137Z,99481.97
2022-11-09T15:15:36.125Z,99479.31
2022-11-09T15:18:03.853Z,99485.03
2022-11-09T15:20:35.069Z,99479.09
2022-11-09T15:23:04.974Z,99486.25
2022-11-09T15:25:35.474Z,99479.72
2022-11-09T15:28:19.461Z,99486.25
2022-11-09T15:30:50.793Z,99489.34
2022-11-09T15:33:25.337Z,99491.63
2022-11-09T15:35:54.828Z,99497.97
2022-11-09T15:38:35.997Z,99503.72
2022-11-09T15:41:07.104Z,99506.81
2022-11-09T15:43:34.774Z,99505.16
2022-11-09T15:46:04.415Z,99505.56
2022-11-09T15:48:32.527Z,99515.19
2022-11-09T15:51:00.317Z,99508.41
2022-11-09T15:53:28.353Z,99523.59
2022-11-09T15:55:55.972Z,99517.03
2022-11-09T15:58:24.043Z,99519.88
2022-11-09T16:00:51.895Z,99519.03
2022-11-09T16:03:20.835Z,99520.81
2022-11-09T16:05:48.858Z,99521.16
2022-11-09T16:08:16.452Z,99510.97
2022-11-09T16:10:44.662Z,99534.06
2022-11-09T16:13:12.560Z,99536.31
2022-11-09T16:15:40.889Z,99541.13
2022-11-09T16:18:09.491Z,99543.00
2022-11-09T16:20:40.192Z,99540.56
2022-11-09T16:23:09.350Z,99562.91
2022-11-09T16:25:37.376Z,99557.13
2022-11-09T16:28:05.117Z,99560.84
2022-11-09T16:30:33.711Z,99566.41
2022-11-09T16:33:01.210Z,99565.81
2022-11-09T16:35:29.231Z,99572.00
2022-11-09T16:38:00.158Z,99576.69
2022-11-09T16:40:28.913Z,99573.41
2022-11-09T16:42:56.646Z,99588.00
2022-11-09T16:45:26.864Z,99589.56
2022-11-09T16:47:58.487Z,99597.72
2022-11-09T16:50:26.137Z,99595.69
2022-11-09T16:52:53.701Z,99594.91
2022-11-09T16:55:22.697Z,99599.94
2022-11-09T16:57:50.259Z,99611.22
2022-11-09T17:00:22.938Z,99612.06
2022-11-09T17:02:50.857Z,99607.69
2022-11-09T17:05:19.874Z,99618.25
2022-11-09T17:07:47.926Z,99617.00
2022-11-09T17:10:16.272Z,99616.66
2022-11-09T17:12:45.204Z,99626.47
2022-11-09T17:15:12.775Z,99636.00
2022-11-09T17:17:40.406Z,99636.59
2022-11-09T17:20:09.225Z,99636.13
2022-11-09T17:22:40.274Z,99639.19
2022-11-09T17:25:11.016Z,99651.44
2022-11-09T17:27:39.498Z,99657.94
2022-11-09T17:30:10.779Z,99655.25
2022-11-09T17:32:38.499Z,99653.91
2022-11-09T17:35:06.446Z,99660.19
2022-11-09T17:37:34.296Z,99663.28
2022-11-09T17:40:02.882Z,99668.75
2022-11-09T17:42:30.535Z,99653.69
2022-11-09T17:44:58.076Z,99671.78
2022-11-09T17:47:26.978Z,99666.22
2022-11-09T17:49:54.508Z,99672.53
2022-11-09T17:52:22.139Z,99674.66
2022-11-09T17:54:49.899Z,99678.38
2022-11-09T17:57:17.666Z,99680.88
2022-11-09T17:59:45.437Z,99685.09
2022-11-09T18:02:13.148Z,99680.00
2022-11-09T18:04:42.078Z,99676.84
2022-11-09T18:07:09.681Z,99675.50
2022-11-09T18:09:42.139Z,99684.69
2022-11-09T18:12:10.528Z,99678.91
2022-11-09T18:14:38.269Z,99687.09
2022-11-09T18:17:05.905Z,99688.94
2022-11-09T18:19:34.075Z,99695.53
2022-11-09T18:22:04.865Z,99697.84
2022-11-09T18:24:34.765Z,99694.94
2022-11-09T18:27:02.393Z,99692.44
2022-11-09T18:29:29.998Z,99699.22
2022-11-09T18:31:57.607Z,99700.78
2022-11-09T18:34:25.163Z,99701.16
2022-11-09T18:36:53.821Z,99708.69
2022-11-09T18:39:22.713Z,99704.00
2022-11-09T18:41:50.675Z,99699.50
2022-11-09T18:44:18.252Z,99707.03
2022-11-09T18:46:46.048Z,99700.72
2022-11-09T18:49:14.538Z,99701.47
2022-11-09T18:51:42.251Z,99714.00
2022-11-09T18:54:09.885Z,99711.13
2022-11-09T18:56:39.067Z,99712.88
2022-11-09T18:59:06.662Z,99721.69
2022-11-09T19:01:34.276Z,99720.59
2022-11-09T19:04:01.947Z,99721.69
2022-11-09T19:06:29.608Z,99721.06
2022-11-09T19:09:14.782Z,99730.31
2022-11-09T19:11:44.725Z,99738.66
2022-11-09T19:14:12.470Z,99737.00
2022-11-09T19:16:40.077Z,99732.06
2022-11-09T19:19:07.785Z,99737.00
2022-11-09T19:21:40.227Z,99734.63
2022-11-09T19:24:09.408Z,99738.59
2022-11-09T19:26:37.091Z,99734.44
2022-11-09T19:29:07.665Z,99737.50
2022-11-09T19:31:36.521Z,99737.50
2022-11-09T19:34:04.270Z,99758.66
2022-11-09T19:36:33.626Z,99757.44
2022-11-09T19:39:02.273Z,99764.59
2022-11-09T19:41:30.027Z,99768.16
2022-11-09T19:43:59.247Z,99765.34
2022-11-09T19:46:30.437Z,99775.13
2022-11-09T19:48:58.511Z,99773.88
2022-11-09T19:51:26.793Z,99778.78
2022-11-09T19:53:56.264Z,99786.50
2022-11-09T19:56:25.367Z,99783.56
2022-11-09T19:58:55.245Z,99786.22
2022-11-09T20:01:24.257Z,99803.06
2022-11-09T20:03:54.445Z,99795.56
2022-11-09T20:06:23.384Z,99796.28
2022-11-09T20:08:52.089Z,99794.25
2022-11-09T20:11:35.729Z,99791.09
2022-11-09T20:14:03.936Z,99801.59
2022-11-09T20:16:33.389Z,99807.66
2022-11-09T20:19:03.824Z,99813.41
2022-11-09T20:21:31.545Z,99819.53
2022-11-09T20:23:59.517Z,99826.50
2022-11-09T20:26:27.655Z,99822.84
2022-11-09T20:28:56.024Z,99827.06
2022-11-09T20:31:24.796Z,99838.50
2022-11-09T20:33:52.779Z,99843.09
2022-11-09T20:36:22.084Z,99841.91
2022-11-09T20:38:49.757Z,99840.50
2022-11-09T20:41:21.688Z,99849.47
2022-11-09T20:43:52.108Z,99834.97
2022-11-09T20:46:21.108Z,99841.22
2022-11-09T20:48:56.297Z,99837.38
2022-11-09T20:51:25.654Z,99837.91
2022-11-09T20:53:53.363Z,99840.75
2022-11-09T20:56:22.636Z,99846.88
2022-11-09T20:58:50.970Z,99854.97
2022-11-09T21:01:20.505Z,99857.00
2022-11-09T21:03:49.721Z,99866.91
2022-11-09T21:06:17.525Z,99868.06
2022-11-09T21:08:50.083Z,99874.47
2022-11-09T21:11:18.489Z,99886.72
2022-11-09T21:13:49.965Z,99887.66
2022-11-09T21:16:19.172Z,99886.72
2022-11-09T21:18:47.112Z,99888.47
2022-11-09T21:21:16.737Z,99885.38
2022-11-09T21:24:03.672Z,99899.75
2022-11-09T21:26:49.104Z,99900.09
2022-11-09T21:29:35.537Z,99911.22
2022-11-09T21:32:04.090Z,99918.56
2022-11-09T21:34:36.463Z,99913.31
2022-11-09T21:37:04.809Z,99925.31
2022-11-09T21:39:34.095Z,99928.03
2022-11-09T21:42:03.001Z,99934.16
2022-11-09T21:44:31.834Z,99935.16
2022-11-09T21:47:00.003Z,99943.38
2022-11-09T21:49:28.422Z,99939.88
2022-11-09T21:51:56.236Z,99949.25
2022-11-09T21:54:24.669Z,99953.78
2022-11-09T21:56:54.016Z,99961.47
2022-11-09T21:59:21.592Z,99961.84
2022-11-09T22:01:49.259Z,99954.19
2022-11-09T22:04:17.337Z,99959.91
2022-11-09T22:06:44.998Z,99972.25
2022-11-09T22:09:16.048Z,99966.34
2022-11-09T22:12:01.490Z,99974.53
2022-11-09T22:14:48.200Z,99977.47
2022-11-09T22:17:15.952Z,99974.84
2022-11-09T22:20:01.057Z,99971.91
2022-11-09T22:22:30.468Z,99987.19
2022-11-09T22:24:59.203Z,99982.53
2022-11-09T22:27:26.794Z,99989.00
2022-11-09T22:29:55.747Z,99997.59
2022-11-09T22:32:23.373Z,100007.38
2022-11-09T22:34:51.325Z,100005.94
2022-11-09T22:37:18.938Z,100023.03
2022-11-09T22:39:47.657Z,100027.16
2022-11-09T22:42:15.453Z,100027.31
2022-11-09T22:44:43.054Z,100037.31
2022-11-09T22:47:11.984Z,100043.41
2022-11-09T22:49:39.573Z,100041.28
2022-11-09T22:52:07.148Z,100055.88
2022-11-09T22:54:34.992Z,100049.53
2022-11-09T22:57:02.617Z,100057.72
2022-11-09T22:59:30.307Z,100061.88
2022-11-09T23:01:58.557Z,100066.47
2022-11-09T23:04:27.483Z,100070.44
2022-11-09T23:06:55.186Z,100064.84
2022-11-09T23:09:22.897Z,100072.44
2022-11-09T23:11:50.505Z,100073.75
2022-11-09T23:14:38.300Z,100084.41
2022-11-09T23:17:26.333Z,100082.38
2022-11-09T23:19:54.261Z,100088.50
2022-11-09T23:22:22.050Z,100085.59
2022-11-09T23:25:07.884Z,100091.69
2022-11-09T23:27:35.419Z,100095.31
2022-11-09T23:30:03.065Z,100093.34
2022-11-09T23:32:30.624Z,100097.81
2022-11-09T23:34:59.508Z,100088.91
2022-11-09T23:37:27.265Z,100097.53
2022-11-09T23:39:54.863Z,100092.56
2022-11-09T23:42:22.394Z,100096.69
2022-11-09T23:44:49.940Z,100103.34
2022-11-09T23:47:17.506Z,100109.63
2022-11-09T23:49:45.097Z,100111.28
2022-11-09T23:52:14.050Z,100112.28
2022-11-09T23:54:42.466Z,100118.75
2022-11-09T23:57:10.221Z,100127.19
2022-11-09T23:59:37.802Z,100126.88
